Terminal Aerodrome Forecast
Issued by NWS

Home | Current Version | Previous Version | Text Only | Print | Product List | Glossary On
Versions: 1 2 3 4 5 6 7 8 9 10 11 12 13 14 15 16 17 18 19
000
FTUS45 KGJT 231437 AAB
TAFEGE
TAF AMD
KEGE 231437Z 2315/2412 VRB02KT 1/2SM FG OVC002
      TEMPO 2315/2316 P6SM NSW SCT010
     FM231900 27007KT P6SM FEW140 BKN250
     FM240100 08004KT P6SM SCT250
     FM240700 15005KT P6SM SKC=

USA.gov is the U.S. government's official web portal to all federal, state and local government web resources and services.